createdAt,value
2023-04-11T00:00:50.226Z,101753.66
2023-04-11T00:03:52.347Z,101725.06
2023-04-11T00:06:53.238Z,101742.13
2023-04-11T00:09:54.179Z,101735.50
2023-04-11T00:12:55.261Z,101731.13
2023-04-11T00:15:56.175Z,101727.94
2023-04-11T00:18:57.422Z,101739.31
2023-04-11T00:21:58.186Z,101728.34
2023-04-11T00:24:59.233Z,101728.28
2023-04-11T00:28:00.193Z,101715.47
2023-04-11T00:31:01.523Z,101724.78
2023-04-11T00:34:02.171Z,101710.72
2023-04-11T00:37:03.315Z,101714.66
2023-04-11T00:40:04.165Z,101707.03
2023-04-11T00:43:05.180Z,101698.00
2023-04-11T00:46:06.246Z,101695.72
2023-04-11T00:49:07.199Z,101692.56
2023-04-11T00:52:08.164Z,101694.38
2023-04-11T00:55:09.197Z,101686.13
2023-04-11T00:58:10.179Z,101683.59
2023-04-11T01:01:16.273Z,101676.44
2023-04-11T01:04:17.222Z,101669.63
2023-04-11T01:07:19.203Z,101668.84
2023-04-11T01:10:20.180Z,101664.66
2023-04-11T01:13:21.197Z,101668.34
2023-04-11T01:16:22.212Z,101656.00
2023-04-11T01:19:33.234Z,101653.00
2023-04-11T01:22:36.187Z,101652.03
2023-04-11T01:25:37.240Z,101650.34
2023-04-11T01:28:38.169Z,101650.56
2023-04-11T01:31:40.524Z,101655.66
2023-04-11T01:34:42.195Z,101649.53
2023-04-11T01:37:43.190Z,101646.09
2023-04-11T01:40:45.146Z,101645.63
2023-04-11T01:43:46.209Z,101640.72
2023-04-11T01:46:47.175Z,101634.28
2023-04-11T01:49:49.205Z,101638.38
2023-04-11T01:52:50.178Z,101626.91
2023-04-11T01:55:51.212Z,101639.72
2023-04-11T01:58:52.171Z,101637.75
2023-04-11T02:01:54.318Z,101634.81
2023-04-11T02:04:55.154Z,101628.88
2023-04-11T02:07:56.210Z,101626.78
2023-04-11T02:10:57.172Z,101623.09
2023-04-11T02:13:59.215Z,101622.72
2023-04-11T02:17:03.151Z,101613.91
2023-04-11T02:20:04.246Z,101609.81
2023-04-11T02:23:05.202Z,101608.16
2023-04-11T02:26:06.198Z,101604.25
2023-04-11T02:29:07.156Z,101604.06
2023-04-11T02:32:08.356Z,101603.63
2023-04-11T02:35:09.189Z,101596.69
2023-04-11T02:38:10.218Z,101586.16
2023-04-11T02:41:11.174Z,101589.09
2023-04-11T02:44:12.186Z,101584.53
2023-04-11T02:47:13.192Z,101580.69
2023-04-11T02:50:14.187Z,101579.13
2023-04-11T02:53:18.125Z,101562.34
2023-04-11T02:56:20.333Z,101565.13
2023-04-11T02:59:23.149Z,101563.44
2023-04-11T03:02:26.338Z,101560.22
2023-04-11T03:05:28.129Z,101557.25
2023-04-11T03:08:30.192Z,101557.91
2023-04-11T03:11:31.155Z,101555.19
2023-04-11T03:14:32.181Z,101549.66
2023-04-11T03:17:33.189Z,101544.25
2023-04-11T03:20:35.214Z,101545.19
2023-04-11T03:23:38.135Z,101534.84
2023-04-11T03:26:41.211Z,101530.03
2023-04-11T03:29:43.163Z,101532.28
2023-04-11T03:32:53.377Z,101528.94
2023-04-11T03:35:56.173Z,101527.50
2023-04-11T03:38:57.395Z,101524.22
2023-04-11T03:41:58.167Z,101523.38
2023-04-11T03:45:00.208Z,101518.78
2023-04-11T03:48:01.205Z,101521.94
2023-04-11T03:51:16.183Z,101525.47
2023-04-11T03:54:30.174Z,101513.13
2023-04-11T03:57:35.188Z,101514.91
2023-04-11T04:00:36.137Z,101510.94
2023-04-11T04:03:37.456Z,101496.53
2023-04-11T04:06:41.163Z,101501.09
2023-04-11T04:09:43.200Z,101500.31
2023-04-11T04:12:44.140Z,101496.63
2023-04-11T04:15:47.191Z,101483.41
2023-04-11T04:18:52.145Z,101477.78
2023-04-11T04:21:55.187Z,101476.53
2023-04-11T04:25:04.150Z,101481.59
2023-04-11T04:28:07.180Z,101476.91
2023-04-11T04:31:09.132Z,101469.50
2023-04-11T04:34:10.264Z,101468.78
2023-04-11T04:37:11.122Z,101469.75
2023-04-11T04:40:16.191Z,101478.19
2023-04-11T04:43:39.130Z,101466.06
2023-04-11T04:46:54.185Z,101473.53
2023-04-11T04:49:56.142Z,101470.16
2023-04-11T04:52:58.195Z,101467.53
2023-04-11T04:55:59.136Z,101464.34
2023-04-11T04:59:04.186Z,101460.38
2023-04-11T05:02:05.215Z,101458.81
2023-04-11T05:05:10.165Z,101455.19
2023-04-11T05:08:11.138Z,101456.81
2023-04-11T05:11:12.210Z,101451.75
2023-04-11T05:14:13.151Z,101425.25
2023-04-11T05:17:14.199Z,101451.34
2023-04-11T05:20:15.133Z,101447.63
2023-04-11T05:23:17.173Z,101440.41
2023-04-11T05:26:19.124Z,101445.59
2023-04-11T05:29:20.161Z,101435.75
2023-04-11T05:32:21.164Z,101432.31
2023-04-11T05:35:22.326Z,101430.09
2023-04-11T05:38:23.149Z,101429.09
2023-04-11T05:41:24.159Z,101423.69
2023-04-11T05:44:25.176Z,101423.91
2023-04-11T05:47:26.190Z,101422.56
2023-04-11T05:50:27.139Z,101415.31
2023-04-11T05:53:28.176Z,101413.56
2023-04-11T05:56:29.128Z,101406.91
2023-04-11T05:59:30.162Z,101405.28
2023-04-11T06:02:31.273Z,101397.25
2023-04-11T06:05:32.177Z,101401.34
2023-04-11T06:08:33.121Z,101392.59
2023-04-11T06:11:35.171Z,101390.72
2023-04-11T06:14:38.046Z,101395.06
2023-04-11T06:17:40.245Z,101384.94
2023-04-11T06:20:41.133Z,101390.59
2023-04-11T06:23:42.154Z,101381.97
2023-04-11T06:26:43.144Z,101378.75
2023-04-11T06:29:44.194Z,101380.72
2023-04-11T06:32:45.187Z,101377.28
2023-04-11T06:35:46.393Z,101374.56
2023-04-11T06:38:47.128Z,101370.63
2023-04-11T06:41:48.177Z,101375.59
2023-04-11T06:44:52.148Z,101367.66
2023-04-11T06:47:53.235Z,101373.59
2023-04-11T06:50:54.113Z,101365.56
2023-04-11T06:53:55.247Z,101364.31
2023-04-11T06:56:58.170Z,101363.22
2023-04-11T06:59:59.145Z,101362.59
2023-04-11T07:03:00.246Z,101355.09
2023-04-11T07:06:01.162Z,101349.66
2023-04-11T07:09:02.123Z,101352.13
2023-04-11T07:12:03.153Z,101348.47
2023-04-11T07:15:04.141Z,101342.91
2023-04-11T07:18:05.182Z,101346.59
2023-04-11T07:21:06.124Z,101343.19
2023-04-11T07:24:07.155Z,101349.16
2023-04-11T07:27:08.140Z,101337.03
2023-04-11T07:30:09.175Z,101338.19
2023-04-11T07:33:10.111Z,101343.78
2023-04-11T07:36:11.455Z,101332.75
2023-04-11T07:39:15.121Z,101321.66
2023-04-11T07:42:16.171Z,101333.13
2023-04-11T07:45:17.105Z,101324.13
2023-04-11T07:48:18.167Z,101322.22
2023-04-11T07:51:19.102Z,101318.44
2023-04-11T07:54:20.169Z,101323.06
2023-04-11T07:57:21.100Z,101321.81
2023-04-11T08:00:22.154Z,101306.50
2023-04-11T08:03:23.475Z,101306.38
2023-04-11T08:06:25.148Z,101306.09
2023-04-11T08:09:26.121Z,101308.81
2023-04-11T08:12:27.150Z,101299.84
2023-04-11T08:15:28.112Z,101308.75
2023-04-11T08:18:30.153Z,101301.69
2023-04-11T08:21:32.101Z,101291.75
2023-04-11T08:24:33.146Z,101290.66
2023-04-11T08:27:34.147Z,101287.44
2023-04-11T08:30:35.168Z,101285.91
2023-04-11T08:33:37.136Z,101284.78
2023-04-11T08:36:38.261Z,101278.91
2023-04-11T08:39:39.187Z,101274.59
2023-04-11T08:42:40.139Z,101265.44
2023-04-11T08:45:41.253Z,101259.34
2023-04-11T08:48:42.160Z,101250.50
2023-04-11T08:51:43.149Z,101252.44
2023-04-11T08:54:44.148Z,101260.03
2023-04-11T08:57:45.090Z,101249.03
2023-04-11T09:00:46.163Z,101250.53
2023-04-11T09:04:03.073Z,101238.75
2023-04-11T09:07:10.137Z,101229.09
2023-04-11T09:10:11.314Z,101236.50
2023-04-11T09:13:15.159Z,101224.09
2023-04-11T09:16:19.203Z,101228.09
2023-04-11T09:19:36.142Z,101218.31
2023-04-11T09:22:48.117Z,101218.09
2023-04-11T09:25:57.130Z,101219.66
2023-04-11T09:29:02.089Z,101215.19
2023-04-11T09:32:03.179Z,101203.81
2023-04-11T09:35:04.100Z,101201.94
2023-04-11T09:38:07.329Z,101203.25
2023-04-11T09:41:08.100Z,101195.63
2023-04-11T09:44:09.146Z,101196.69
2023-04-11T09:47:10.101Z,101201.44
2023-04-11T09:50:11.139Z,101171.06
2023-04-11T09:53:12.119Z,101187.88
2023-04-11T09:56:15.129Z,101179.81
2023-04-11T09:59:16.109Z,101170.59
2023-04-11T10:02:17.221Z,101184.44
2023-04-11T10:05:18.135Z,101179.53
2023-04-11T10:08:29.134Z,101178.94
2023-04-11T10:11:31.094Z,101172.50
2023-04-11T10:14:50.164Z,101160.25
2023-04-11T10:17:51.163Z,101159.94
2023-04-11T10:20:54.127Z,101166.78
2023-04-11T10:24:18.333Z,101153.19
2023-04-11T10:27:19.119Z,101148.94
2023-04-11T10:30:20.179Z,101146.88
2023-04-11T10:33:33.140Z,101149.03
2023-04-11T10:36:34.103Z,101142.03
2023-04-11T10:39:55.324Z,101145.97
2023-04-11T10:42:57.103Z,101132.63
2023-04-11T10:45:58.129Z,101133.03
2023-04-11T10:49:15.086Z,101127.72
2023-04-11T10:52:31.130Z,101117.34
2023-04-11T10:55:33.108Z,101121.03
2023-04-11T10:58:34.135Z,101118.03
2023-04-11T11:04:48.187Z,101115.34
2023-04-11T11:07:49.094Z,101092.94
2023-04-11T11:10:54.670Z,101096.41
2023-04-11T11:13:58.277Z,101088.13
2023-04-11T11:17:00.242Z,101088.81
2023-04-11T11:20:01.076Z,101087.53
2023-04-11T11:23:12.215Z,101089.78
2023-04-11T11:26:13.060Z,101075.75
2023-04-11T11:29:14.148Z,101068.34
2023-04-11T11:32:15.146Z,101073.44
2023-04-11T11:35:28.121Z,101064.88
2023-04-11T11:38:29.091Z,101070.25
2023-04-11T11:41:30.421Z,101062.06
2023-04-11T11:44:38.059Z,101060.28
2023-04-11T11:47:39.147Z,101052.91
2023-04-11T11:50:41.084Z,101053.19
2023-04-11T11:53:42.109Z,101037.72
2023-04-11T11:56:43.052Z,101051.13
2023-04-11T11:59:44.110Z,101040.88
2023-04-11T12:02:49.227Z,101048.09
2023-04-11T12:05:51.089Z,101042.72
2023-04-11T12:09:00.111Z,101052.34
2023-04-11T12:12:01.119Z,101050.34
2023-04-11T12:15:08.063Z,101038.88
2023-04-11T12:18:09.163Z,101033.13
2023-04-11T12:21:10.062Z,101028.31
2023-04-11T12:24:11.110Z,101023.84
2023-04-11T12:27:12.559Z,101025.16
2023-04-11T12:30:13.098Z,101020.25
2023-04-11T12:33:14.071Z,101011.69
2023-04-11T12:36:15.094Z,101007.50
2023-04-11T12:39:16.067Z,101002.28
2023-04-11T12:42:21.011Z,101002.84
2023-04-11T12:45:27.100Z,100997.06
2023-04-11T12:48:28.129Z,100997.31
2023-04-11T12:51:29.047Z,100994.50
2023-04-11T12:54:30.137Z,100982.13
2023-04-11T12:57:31.178Z,100977.66
2023-04-11T13:00:32.127Z,100991.97
2023-04-11T13:03:34.240Z,100978.50
2023-04-11T13:06:35.122Z,100984.53
2023-04-11T13:09:39.059Z,100973.25
2023-04-11T13:12:41.181Z,100972.22
2023-04-11T13:15:42.040Z,100976.78
2023-04-11T13:18:43.135Z,100970.25
2023-04-11T13:21:44.095Z,100970.81
2023-04-11T13:24:45.089Z,100969.38
2023-04-11T13:27:47.071Z,100961.66
2023-04-11T13:30:48.098Z,100965.81
2023-04-11T13:33:49.093Z,100958.50
2023-04-11T13:36:50.360Z,100958.84
2023-04-11T13:39:51.085Z,100956.97
2023-04-11T13:42:52.275Z,100949.00
2023-04-11T13:45:53.172Z,100949.03
2023-04-11T13:48:54.167Z,100953.94
2023-04-11T13:51:55.054Z,100949.34
2023-04-11T13:54:56.106Z,100945.56
2023-04-11T13:57:57.064Z,100952.06
2023-04-11T14:00:58.122Z,100950.72
2023-04-11T14:03:59.258Z,100945.91
2023-04-11T14:07:02.155Z,100939.63
2023-04-11T14:10:03.038Z,100933.94
2023-04-11T14:13:04.096Z,100939.63
2023-04-11T14:16:09.384Z,100934.47
2023-04-11T14:19:10.091Z,100927.88
2023-04-11T14:22:11.051Z,100940.41
2023-04-11T14:25:16.102Z,100929.44
2023-04-11T14:28:17.056Z,100926.34
2023-04-11T14:31:18.259Z,100922.44
2023-04-11T14:34:19.049Z,100928.09
2023-04-11T14:37:20.102Z,100927.38
2023-04-11T14:40:21.066Z,100917.69
2023-04-11T14:43:22.338Z,100913.88
2023-04-11T14:46:23.092Z,100918.44
2023-04-11T14:49:24.165Z,100911.00
2023-04-11T14:52:25.039Z,100905.53
2023-04-11T14:55:26.061Z,100917.00
2023-04-11T14:58:27.033Z,100903.59
2023-04-11T15:01:28.186Z,100902.88
2023-04-11T15:04:29.229Z,100917.28
2023-04-11T15:07:30.065Z,100910.03
2023-04-11T15:10:32.072Z,100910.88
2023-04-11T15:13:34.096Z,100918.28
2023-04-11T15:16:35.116Z,100918.16
2023-04-11T15:19:36.086Z,100905.19
2023-04-11T15:22:38.086Z,100909.28
2023-04-11T15:25:40.096Z,100897.22
2023-04-11T15:28:45.142Z,100890.69
2023-04-11T15:31:47.139Z,100897.84
2023-04-11T15:34:48.033Z,100904.16
2023-04-11T15:37:49.161Z,100898.16
2023-04-11T15:40:50.044Z,100896.69
2023-04-11T15:43:51.270Z,100894.00
2023-04-11T15:46:52.077Z,100898.41
2023-04-11T15:49:53.077Z,100891.50
2023-04-11T15:52:54.876Z,100893.72
2023-04-11T15:55:58.084Z,100889.28
2023-04-11T15:58:59.028Z,100887.56
2023-04-11T16:02:00.227Z,100891.84
2023-04-11T16:05:02.173Z,100875.41
2023-04-11T16:08:03.110Z,100876.41
2023-04-11T16:11:04.059Z,100882.28
2023-04-11T16:14:05.059Z,100876.41
2023-04-11T16:17:06.354Z,100877.00
2023-04-11T16:20:07.104Z,100881.25
2023-04-11T16:23:08.042Z,100876.13
2023-04-11T16:26:09.052Z,100880.69
2023-04-11T16:29:10.047Z,100865.25
2023-04-11T16:32:11.101Z,100872.97
2023-04-11T16:35:12.102Z,100876.53
2023-04-11T16:38:13.074Z,100873.53
2023-04-11T16:41:14.030Z,100876.41
2023-04-11T16:44:21.263Z,100869.53
2023-04-11T16:47:22.073Z,100867.25
2023-04-11T16:50:24.059Z,100877.56
2023-04-11T16:53:25.067Z,100875.69
2023-04-11T16:56:27.530Z,100870.97
2023-04-11T16:59:30.006Z,100876.41
2023-04-11T17:02:31.274Z,100877.38
2023-04-11T17:05:32.050Z,100876.69
2023-04-11T17:08:33.098Z,100879.25
2023-04-11T17:11:35.272Z,100878.41
2023-04-11T17:14:38.077Z,100884.44
2023-04-11T17:17:40.034Z,100886.69
2023-04-11T17:20:41.081Z,100896.16
2023-04-11T17:23:43.414Z,100897.00
2023-04-11T17:26:44.068Z,100889.00
2023-04-11T17:29:45.014Z,100891.56
2023-04-11T17:32:46.097Z,100892.13
2023-04-11T17:35:47.040Z,100902.44
2023-04-11T17:38:49.062Z,100899.59
2023-04-11T17:41:50.031Z,100901.00
2023-04-11T17:44:51.162Z,100910.00
2023-04-11T17:47:54.090Z,100905.59
2023-04-11T17:50:55.063Z,100909.59
2023-04-11T17:53:56.221Z,100907.88
2023-04-11T17:56:57.062Z,100900.72
2023-04-11T17:59:58.022Z,100909.00
2023-04-11T18:03:00.231Z,100912.72
2023-04-11T18:06:01.036Z,100911.84
2023-04-11T18:09:02.060Z,100910.44
2023-04-11T18:12:04.042Z,100916.75
2023-04-11T18:15:05.045Z,100917.88
2023-04-11T18:18:06.109Z,100920.72
2023-04-11T18:21:07.988Z,100920.88
2023-04-11T18:24:08.963Z,100914.16
2023-04-11T18:27:10.624Z,100922.72
2023-04-11T18:30:15.002Z,100921.31
2023-04-11T18:33:16.122Z,100916.75
2023-04-11T18:36:17.059Z,100916.72
2023-04-11T18:39:18.250Z,100918.72
2023-04-11T18:42:19.042Z,100920.72
2023-04-11T18:45:20.250Z,100925.16
2023-04-11T18:48:21.061Z,100922.28
2023-04-11T18:51:22.087Z,100931.88
2023-04-11T18:54:23.047Z,100924.72
2023-04-11T18:57:24.655Z,100929.72
2023-04-11T19:00:27.050Z,100929.31
2023-04-11T19:03:28.126Z,100925.44
2023-04-11T19:06:29.004Z,100927.63
2023-04-11T19:09:30.062Z,100932.19
2023-04-11T19:12:31.017Z,100919.31
2023-04-11T19:15:32.057Z,100928.16
2023-04-11T19:18:33.011Z,100916.13
2023-04-11T19:21:34.037Z,100933.31
2023-04-11T19:24:35.022Z,100927.31
2023-04-11T19:27:36.055Z,100921.19
2023-04-11T19:30:36.988Z,100926.34
2023-04-11T19:33:38.053Z,100923.88
2023-04-11T19:36:38.999Z,100923.88
2023-04-11T19:39:45.244Z,100931.19
2023-04-11T19:42:47.031Z,100921.88
2023-04-11T19:45:48.414Z,100931.88
2023-04-11T19:48:49.009Z,100919.03
2023-04-11T19:51:50.036Z,100924.44
2023-04-11T19:54:50.982Z,100929.63
2023-04-11T19:57:52.046Z,100925.00
2023-04-11T20:00:53.076Z,100932.09
2023-04-11T20:03:54.246Z,100928.09
2023-04-11T20:06:57.008Z,100917.41
2023-04-11T20:09:58.052Z,100921.00
2023-04-11T20:12:58.982Z,100920.47
2023-04-11T20:16:00.044Z,100928.47
2023-04-11T20:19:01.029Z,100917.44
2023-04-11T20:22:04.056Z,100931.88
2023-04-11T20:25:05.002Z,100926.16
2023-04-11T20:28:06.059Z,100927.28
2023-04-11T20:31:07.014Z,100929.00
2023-04-11T20:34:08.018Z,100930.16
2023-04-11T20:37:09.992Z,100927.63
2023-04-11T20:40:14.270Z,100928.44
2023-04-11T20:43:16.024Z,100922.66
2023-04-11T20:46:20.336Z,100923.88
2023-04-11T20:49:20.990Z,100930.06
2023-04-11T20:52:24.039Z,100924.22
2023-04-11T20:55:24.981Z,100920.59
2023-04-11T20:58:27.035Z,100923.38
2023-04-11T21:01:28.050Z,100929.81
2023-04-11T21:04:29.189Z,100921.56
2023-04-11T21:07:30.028Z,100919.22
2023-04-11T21:10:31.009Z,100930.66
2023-04-11T21:13:31.969Z,100927.59
2023-04-11T21:16:33.036Z,100934.88
2023-04-11T21:19:33.975Z,100928.16
2023-04-11T21:22:35.053Z,100929.28
2023-04-11T21:25:36.989Z,100933.78
2023-04-11T21:28:38.109Z,100931.56
2023-04-11T21:31:39.029Z,100936.41
2023-04-11T21:34:40.029Z,100940.41
2023-04-11T21:37:41.009Z,100946.03
2023-04-11T21:40:42.032Z,100950.38
2023-04-11T21:43:43.014Z,100938.94
2023-04-11T21:46:44.313Z,100943.31
2023-04-11T21:49:44.995Z,100928.34
2023-04-11T21:52:46.019Z,100951.19
2023-04-11T21:55:47.026Z,100956.06
2023-04-11T21:58:48.005Z,100947.81
2023-04-11T22:01:49.111Z,100949.88
2023-04-11T22:05:04.985Z,100952.44
2023-04-11T22:08:21.009Z,100957.22
2023-04-11T22:11:22.067Z,100961.56
2023-04-11T22:14:22.993Z,100956.22
2023-04-11T22:17:24.028Z,100954.81
2023-04-11T22:20:25.035Z,100961.31
2023-04-11T22:23:26.014Z,100955.25
2023-04-11T22:26:32.995Z,100959.88
2023-04-11T22:29:37.024Z,100953.91
2023-04-11T22:32:38.154Z,100960.41
2023-04-11T22:35:39.031Z,100954.94
2023-04-11T22:38:39.988Z,100951.03
2023-04-11T22:41:41.020Z,100955.19
2023-04-11T22:44:41.957Z,100958.06
2023-04-11T22:47:45.079Z,100954.34
2023-04-11T22:50:45.976Z,100952.72
2023-04-11T22:53:49.032Z,100953.25
2023-04-11T22:56:49.983Z,100958.22
2023-04-11T22:59:51.028Z,100957.03
2023-04-11T23:02:51.967Z,100960.03
2023-04-11T23:05:55.022Z,100953.75
2023-04-11T23:08:55.952Z,100953.00
2023-04-11T23:11:57.029Z,100954.09
2023-04-11T23:14:59.983Z,100951.78
2023-04-11T23:18:01.063Z,100950.56
2023-04-11T23:21:01.998Z,100950.63
2023-04-11T23:24:03.032Z,100944.06
2023-04-11T23:27:03.969Z,100950.31
2023-04-11T23:30:06.016Z,100947.66
2023-04-11T23:33:08.011Z,100947.75
2023-04-11T23:36:09.067Z,100945.88
2023-04-11T23:39:10.983Z,100948.81
2023-04-11T23:42:11.988Z,100942.16
2023-04-11T23:45:12.958Z,100939.44
2023-04-11T23:48:14.127Z,100939.16
2023-04-11T23:51:14.978Z,100942.34
2023-04-11T23:54:15.977Z,100942.59
2023-04-11T23:57:16.962Z,100941.75
